^^
Meteo Knjazevac Station Historical Data
Daily Summary for January 26, 2022 Units:  Both    English   Metric
Daily Weekly Monthly Yearly Custom
  High: Low: Average:
Temperature: 33.8 °F /  1 °C 23.7 °F /  -4.6 °C 29.4 °F /  -1.4 °C
Dew Point: 30.4 °F /  -0.9 °C 17 °F /  -8.3 °C 24.3 °F /  -4.3 °C
Humidity: 91% 70% 81%
Wind Speed: 12mph /  19.3km/h - 4mph /  6.4km/h
Wind Gust: 21mph /  33.8km/h - -
Wind- - SSW
Pressure: 30.38 in /  1028.7 hPa 30.30 in /  1026 hPa -
Precipitation: 0.00 in /  0 mm    
Historical Graphs
 
 
Tabular Data for January 26, 2022
Time Temperature Dew Point Pressure Wind Wind Speed Wind Gust Humidity Rainfall Rate (Hourly) solar Conditions
00:00 23.7 °F /  -4.6 °C 17 °F /  -8.3 °C 30.38in /  1028.7hPa SW 1mph /  1.6km/h 6mph /  9.7km/h 75% 0.00in /  0mm 0 W/m2
00:10 23.7 °F /  -4.6 °C 17 °F /  -8.3 °C 30.38in /  1028.7hPa SSE 2mph /  3.2km/h 7mph /  11.3km/h 75% 0.00in /  0mm 0 W/m2
00:20 23.9 °F /  -4.5 °C 17.1 °F /  -8.3 °C 30.38in /  1028.7hPa SSE 3mph /  4.8km/h 6mph /  9.7km/h 75% 0.00in /  0mm 0 W/m2
00:30 24.1 °F /  -4.4 °C 17.3 °F /  -8.2 °C 30.37in /  1028.3hPa SE 2mph /  3.2km/h 7mph /  11.3km/h 75% 0.00in /  0mm 0 W/m2
00:40 24.1 °F /  -4.4 °C 17.3 °F /  -8.2 °C 30.37in /  1028.3hPa SSE 3mph /  4.8km/h 7mph /  11.3km/h 75% 0.00in /  0mm 0 W/m2
00:50 24.1 °F /  -4.4 °C 17.3 °F /  -8.2 °C 30.37in /  1028.3hPa SSW 3mph /  4.8km/h 5mph /  8km/h 75% 0.00in /  0mm 0 W/m2
01:00 24.1 °F /  -4.4 °C 17.3 °F /  -8.2 °C 30.36in /  1028hPa SSE 2mph /  3.2km/h 5mph /  8km/h 75% 0.00in /  0mm 0 W/m2
01:10 24.3 °F /  -4.3 °C 17.2 °F /  -8.2 °C 30.37in /  1028.3hPa SE 2mph /  3.2km/h 6mph /  9.7km/h 74% 0.00in /  0mm 0 W/m2
01:20 24.4 °F /  -4.2 °C 17.3 °F /  -8.2 °C 30.36in /  1028hPa South 2mph /  3.2km/h 7mph /  11.3km/h 74% 0.00in /  0mm 0 W/m2
01:30 24.4 °F /  -4.2 °C 17.3 °F /  -8.2 °C 30.36in /  1028hPa Calm   6mph /  9.7km/h 74% 0.00in /  0mm 0 W/m2
01:40 24.6 °F /  -4.1 °C 17.4 °F /  -8.1 °C 30.36in /  1028hPa Calm   6mph /  9.7km/h 74% 0.00in /  0mm 0 W/m2
01:50 24.6 °F /  -4.1 °C 17.2 °F /  -8.2 °C 30.36in /  1028hPa SSE 3mph /  4.8km/h 7mph /  11.3km/h 73% 0.00in /  0mm 0 W/m2
02:00 24.8 °F /  -4 °C 17.4 °F /  -8.1 °C 30.36in /  1028hPa SE 3mph /  4.8km/h 8mph /  12.9km/h 73% 0.00in /  0mm 0 W/m2
02:10 24.8 °F /  -4 °C 17.4 °F /  -8.1 °C 30.36in /  1028hPa SE 5mph /  8km/h 8mph /  12.9km/h 73% 0.00in /  0mm 0 W/m2
02:20 24.9 °F /  -3.9 °C 17.5 °F /  -8.1 °C 30.36in /  1028hPa SSE 2mph /  3.2km/h 7mph /  11.3km/h 73% 0.00in /  0mm 0 W/m2
02:30 25 °F /  -3.9 °C 17.5 °F /  -8.1 °C 30.35in /  1027.7hPa SE 2mph /  3.2km/h 9mph /  14.5km/h 73% 0.00in /  0mm 0 W/m2
02:40 25.2 °F /  -3.8 °C 17.7 °F /  -7.9 °C 30.35in /  1027.7hPa SE 3mph /  4.8km/h 8mph /  12.9km/h 73% 0.00in /  0mm 0 W/m2
02:50 25.2 °F /  -3.8 °C 17.7 °F /  -7.9 °C 30.35in /  1027.7hPa SE 3mph /  4.8km/h 12mph /  19.3km/h 73% 0.00in /  0mm 0 W/m2
03:00 25.2 °F /  -3.8 °C 17.7 °F /  -7.9 °C 30.35in /  1027.7hPa SE 2mph /  3.2km/h 12mph /  19.3km/h 73% 0.00in /  0mm 0 W/m2
03:10 25.3 °F /  -3.7 °C 17.9 °F /  -7.8 °C 30.35in /  1027.7hPa SSE 5mph /  8km/h 9mph /  14.5km/h 73% 0.00in /  0mm 0 W/m2
03:20 25.3 °F /  -3.7 °C 17.9 °F /  -7.8 °C 30.35in /  1027.7hPa SE 3mph /  4.8km/h 10mph /  16.1km/h 73% 0.00in /  0mm 0 W/m2
03:30 25.3 °F /  -3.7 °C 17.9 °F /  -7.8 °C 30.35in /  1027.7hPa SSE 1mph /  1.6km/h 8mph /  12.9km/h 73% 0.00in /  0mm 0 W/m2
03:40 25.5 °F /  -3.6 °C 18.1 °F /  -7.7 °C 30.35in /  1027.7hPa SSW 2mph /  3.2km/h 6mph /  9.7km/h 73% 0.00in /  0mm 0 W/m2
03:50 25.6 °F /  -3.6 °C 17.9 °F /  -7.8 °C 30.34in /  1027.3hPa SW 5mph /  8km/h 7mph /  11.3km/h 72% 0.00in /  0mm 0 W/m2
04:00 25.7 °F /  -3.5 °C 17.9 °F /  -7.8 °C 30.35in /  1027.7hPa WSW 6mph /  9.7km/h 9mph /  14.5km/h 72% 0.00in /  0mm 0 W/m2
04:10 25.7 °F /  -3.5 °C 17.3 °F /  -8.2 °C 30.35in /  1027.7hPa SW 7mph /  11.3km/h 10mph /  16.1km/h 70% 0.00in /  0mm 0 W/m2
04:20 25.8 °F /  -3.4 °C 17.4 °F /  -8.1 °C 30.35in /  1027.7hPa SW 6mph /  9.7km/h 9mph /  14.5km/h 70% 0.00in /  0mm 0 W/m2
04:30 25.9 °F /  -3.4 °C 17.4 °F /  -8.1 °C 30.35in /  1027.7hPa WSW 7mph /  11.3km/h 13mph /  20.9km/h 70% 0.00in /  0mm 0 W/m2
04:40 25.9 °F /  -3.4 °C 17.4 °F /  -8.1 °C 30.35in /  1027.7hPa WSW 8mph /  12.9km/h 13mph /  20.9km/h 70% 0.00in /  0mm 0 W/m2
04:50 25.9 °F /  -3.4 °C 17.4 °F /  -8.1 °C 30.35in /  1027.7hPa WSW 9mph /  14.5km/h 13mph /  20.9km/h 70% 0.00in /  0mm 0 W/m2
05:00 25.9 °F /  -3.4 °C 17.4 °F /  -8.1 °C 30.35in /  1027.7hPa SW 6mph /  9.7km/h 13mph /  20.9km/h 70% 0.00in /  0mm 0 W/m2
05:10 25.9 °F /  -3.4 °C 17.4 °F /  -8.1 °C 30.34in /  1027.3hPa WSW 5mph /  8km/h 11mph /  17.7km/h 70% 0.00in /  0mm 0 W/m2
05:20 25.9 °F /  -3.4 °C 17.4 °F /  -8.1 °C 30.34in /  1027.3hPa WSW 5mph /  8km/h 9mph /  14.5km/h 70% 0.00in /  0mm 0 W/m2
05:30 25.9 °F /  -3.4 °C 18.1 °F /  -7.7 °C 30.34in /  1027.3hPa SW 3mph /  4.8km/h 7mph /  11.3km/h 72% 0.00in /  0mm 0 W/m2
05:40 25.9 °F /  -3.4 °C 17.4 °F /  -8.1 °C 30.35in /  1027.7hPa WSW 5mph /  8km/h 8mph /  12.9km/h 70% 0.00in /  0mm 0 W/m2
05:50 25.8 °F /  -3.4 °C 17.4 °F /  -8.1 °C 30.35in /  1027.7hPa WSW 3mph /  4.8km/h 7mph /  11.3km/h 70% 0.00in /  0mm 0 W/m2
06:00 25.9 °F /  -3.4 °C 18.1 °F /  -7.7 °C 30.35in /  1027.7hPa WSW 6mph /  9.7km/h 8mph /  12.9km/h 72% 0.00in /  0mm 0 W/m2
06:10 25.8 °F /  -3.4 °C 18 °F /  -7.8 °C 30.35in /  1027.7hPa WSW 3mph /  4.8km/h 9mph /  14.5km/h 72% 0.00in /  0mm 0 W/m2
06:20 25.7 °F /  -3.5 °C 17.9 °F /  -7.8 °C 30.35in /  1027.7hPa SW 5mph /  8km/h 8mph /  12.9km/h 72% 0.00in /  0mm 0 W/m2
06:30 25.8 °F /  -3.4 °C 18 °F /  -7.8 °C 30.35in /  1027.7hPa WSW 5mph /  8km/h 8mph /  12.9km/h 72% 0.00in /  0mm 0 W/m2
06:40 25.7 °F /  -3.5 °C 17.9 °F /  -7.8 °C 30.35in /  1027.7hPa WSW 6mph /  9.7km/h 9mph /  14.5km/h 72% 0.00in /  0mm 0 W/m2
06:50 25.7 °F /  -3.5 °C 17.9 °F /  -7.8 °C 30.35in /  1027.7hPa WSW 5mph /  8km/h 6mph /  9.7km/h 72% 0.00in /  0mm 0 W/m2
07:00 25.9 °F /  -3.4 °C 18.1 °F /  -7.7 °C 30.35in /  1027.7hPa SW 3mph /  4.8km/h 7mph /  11.3km/h 72% 0.00in /  0mm 1 W/m2
07:10 25.9 °F /  -3.4 °C 18.1 °F /  -7.7 °C 30.35in /  1027.7hPa SW 3mph /  4.8km/h 7mph /  11.3km/h 72% 0.00in /  0mm 3 W/m2
07:20 26.1 °F /  -3.3 °C 18.6 °F /  -7.4 °C 30.35in /  1027.7hPa WSW 3mph /  4.8km/h 7mph /  11.3km/h 73% 0.00in /  0mm 4 W/m2
07:30 26.2 °F /  -3.2 °C 18.8 °F /  -7.3 °C 30.35in /  1027.7hPa SW 6mph /  9.7km/h 8mph /  12.9km/h 73% 0.00in /  0mm 10 W/m2
07:40 26.2 °F /  -3.2 °C 18.8 °F /  -7.3 °C 30.35in /  1027.7hPa SW 5mph /  8km/h 7mph /  11.3km/h 73% 0.00in /  0mm 11 W/m2
07:50 26.4 °F /  -3.1 °C 19.3 °F /  -7.1 °C 30.35in /  1027.7hPa WSW 5mph /  8km/h 8mph /  12.9km/h 74% 0.00in /  0mm 16 W/m2
08:00 26.4 °F /  -3.1 °C 19.3 °F /  -7.1 °C 30.34in /  1027.3hPa WSW 3mph /  4.8km/h 6mph /  9.7km/h 74% 0.00in /  0mm 16 W/m2
08:10 26.6 °F /  -3 °C 19.4 °F /  -7 °C 30.34in /  1027.3hPa WSW 3mph /  4.8km/h 6mph /  9.7km/h 74% 0.00in /  0mm 18 W/m2
08:20 26.6 °F /  -3 °C 19.7 °F /  -6.8 °C 30.34in /  1027.3hPa SW 3mph /  4.8km/h 6mph /  9.7km/h 75% 0.00in /  0mm 21 W/m2
08:30 26.8 °F /  -2.9 °C 20.5 °F /  -6.4 °C 30.34in /  1027.3hPa SW 5mph /  8km/h 8mph /  12.9km/h 77% 0.00in /  0mm 21 W/m2
08:40 26.8 °F /  -2.9 °C 20.8 °F /  -6.2 °C 30.34in /  1027.3hPa SW 3mph /  4.8km/h 8mph /  12.9km/h 78% 0.00in /  0mm 32 W/m2
08:50 27 °F /  -2.8 °C 21 °F /  -6.1 °C 30.34in /  1027.3hPa SW 5mph /  8km/h 7mph /  11.3km/h 78% 0.00in /  0mm 27 W/m2
09:00 27.1 °F /  -2.7 °C 21.5 °F /  -5.8 °C 30.34in /  1027.3hPa SW 2mph /  3.2km/h 7mph /  11.3km/h 79% 0.00in /  0mm 27 W/m2
09:10 27.5 °F /  -2.5 °C 21.8 °F /  -5.7 °C 30.35in /  1027.7hPa South 2mph /  3.2km/h 5mph /  8km/h 79% 0.00in /  0mm 35 W/m2
09:20 27.5 °F /  -2.5 °C 21.5 °F /  -5.8 °C 30.35in /  1027.7hPa Calm   5mph /  8km/h 78% 0.00in /  0mm 30 W/m2
09:30 27.7 °F /  -2.4 °C 21.7 °F /  -5.7 °C 30.34in /  1027.3hPa South 2mph /  3.2km/h 7mph /  11.3km/h 78% 0.00in /  0mm 37 W/m2
09:40 27.9 °F /  -2.3 °C 22.5 °F /  -5.3 °C 30.34in /  1027.3hPa SSE 1mph /  1.6km/h 7mph /  11.3km/h 80% 0.00in /  0mm 44 W/m2
09:50 28 °F /  -2.2 °C 22.1 °F /  -5.5 °C 30.35in /  1027.7hPa SE 3mph /  4.8km/h 8mph /  12.9km/h 78% 0.00in /  0mm 48 W/m2
10:00 28.2 °F /  -2.1 °C 22.2 °F /  -5.4 °C 30.35in /  1027.7hPa SE 3mph /  4.8km/h 8mph /  12.9km/h 78% 0.00in /  0mm 37 W/m2
10:10 28.2 °F /  -2.1 °C 22.2 °F /  -5.4 °C 30.35in /  1027.7hPa SE 5mph /  8km/h 10mph /  16.1km/h 78% 0.00in /  0mm 40 W/m2
10:20 28.2 °F /  -2.1 °C 22.2 °F /  -5.4 °C 30.35in /  1027.7hPa SE 3mph /  4.8km/h 8mph /  12.9km/h 78% 0.00in /  0mm 41 W/m2
10:30 28.2 °F /  -2.1 °C 22.5 °F /  -5.3 °C 30.35in /  1027.7hPa SE 1mph /  1.6km/h 9mph /  14.5km/h 79% 0.00in /  0mm 36 W/m2
10:40 28.4 °F /  -2 °C 22.7 °F /  -5.2 °C 30.35in /  1027.7hPa South 3mph /  4.8km/h 8mph /  12.9km/h 79% 0.00in /  0mm 67 W/m2
10:50 28.6 °F /  -1.9 °C 23.2 °F /  -4.9 °C 30.35in /  1027.7hPa SE 2mph /  3.2km/h 9mph /  14.5km/h 80% 0.00in /  0mm 31 W/m2
11:00 28.8 °F /  -1.8 °C 23.4 °F /  -4.8 °C 30.34in /  1027.3hPa SSE 2mph /  3.2km/h 7mph /  11.3km/h 80% 0.00in /  0mm 41 W/m2
11:10 28.8 °F /  -1.8 °C 23.7 °F /  -4.6 °C 30.34in /  1027.3hPa ESE 3mph /  4.8km/h 9mph /  14.5km/h 81% 0.00in /  0mm 61 W/m2
11:20 28.9 °F /  -1.7 °C 23.8 °F /  -4.6 °C 30.34in /  1027.3hPa SSE 2mph /  3.2km/h 6mph /  9.7km/h 81% 0.00in /  0mm 86 W/m2
11:30 29.1 °F /  -1.6 °C 24 °F /  -4.4 °C 30.34in /  1027.3hPa SSE 3mph /  4.8km/h 7mph /  11.3km/h 81% 0.00in /  0mm 101 W/m2
11:40 29.5 °F /  -1.4 °C 24.4 °F /  -4.2 °C 30.33in /  1027hPa SE 3mph /  4.8km/h 9mph /  14.5km/h 81% 0.00in /  0mm 93 W/m2
11:50 29.8 °F /  -1.2 °C 25.3 °F /  -3.7 °C 30.33in /  1027hPa SSW 1mph /  1.6km/h 7mph /  11.3km/h 83% 0.00in /  0mm 164 W/m2
12:00 30.2 °F /  -1 °C 25.7 °F /  -3.5 °C 30.33in /  1027hPa SSE 1mph /  1.6km/h 6mph /  9.7km/h 83% 0.00in /  0mm 167 W/m2
12:10 30.7 °F /  -0.7 °C 26.5 °F /  -3.1 °C 30.33in /  1027hPa WSW 3mph /  4.8km/h 6mph /  9.7km/h 84% 0.00in /  0mm 156 W/m2
12:20 31.3 °F /  -0.4 °C 27 °F /  -2.8 °C 30.32in /  1026.6hPa SSE 2mph /  3.2km/h 6mph /  9.7km/h 84% 0.00in /  0mm 124 W/m2
12:30 31.6 °F /  -0.2 °C 27.1 °F /  -2.7 °C 30.32in /  1026.6hPa NNE 2mph /  3.2km/h 5mph /  8km/h 83% 0.00in /  0mm 115 W/m2
12:40 31.8 °F /  -0.1 °C 27.2 °F /  -2.7 °C 30.32in /  1026.6hPa North 1mph /  1.6km/h 4mph /  6.4km/h 83% 0.00in /  0mm 120 W/m2
12:50 32.2 °F /  0.1 °C 27.6 °F /  -2.4 °C 30.32in /  1026.6hPa ESE 2mph /  3.2km/h 5mph /  8km/h 83% 0.00in /  0mm 147 W/m2
13:00 32.4 °F /  0.2 °C 27.8 °F /  -2.3 °C 30.31in /  1026.3hPa NNE 1mph /  1.6km/h 5mph /  8km/h 83% 0.00in /  0mm 172 W/m2
13:10 32.7 °F /  0.4 °C 27.5 °F /  -2.5 °C 30.31in /  1026.3hPa East 1mph /  1.6km/h 6mph /  9.7km/h 81% 0.00in /  0mm 153 W/m2
13:20 33.1 °F /  0.6 °C 27.9 °F /  -2.3 °C 30.31in /  1026.3hPa NE 1mph /  1.6km/h 5mph /  8km/h 81% 0.00in /  0mm 180 W/m2
13:30 33.3 °F /  0.7 °C 28.1 °F /  -2.2 °C 30.31in /  1026.3hPa WSW 2mph /  3.2km/h 6mph /  9.7km/h 81% 0.00in /  0mm 200 W/m2
13:40 33.6 °F /  0.9 °C 28.4 °F /  -2 °C 30.30in /  1026hPa WSW 7mph /  11.3km/h 9mph /  14.5km/h 81% 0.00in /  0mm 150 W/m2
13:50 33.8 °F /  1 °C 28.6 °F /  -1.9 °C 30.30in /  1026hPa WSW 6mph /  9.7km/h 13mph /  20.9km/h 81% 0.00in /  0mm 99 W/m2
14:00 33.8 °F /  1 °C 28.6 °F /  -1.9 °C 30.31in /  1026.3hPa WSW 7mph /  11.3km/h 12mph /  19.3km/h 81% 0.00in /  0mm 106 W/m2
14:10 33.8 °F /  1 °C 29.2 °F /  -1.6 °C 30.30in /  1026hPa WSW 7mph /  11.3km/h 13mph /  20.9km/h 83% 0.00in /  0mm 102 W/m2
14:20 33.8 °F /  1 °C 29.2 °F /  -1.6 °C 30.31in /  1026.3hPa WSW 8mph /  12.9km/h 14mph /  22.5km/h 83% 0.00in /  0mm 107 W/m2
14:30 33.6 °F /  0.9 °C 29 °F /  -1.7 °C 30.30in /  1026hPa West 9mph /  14.5km/h 14mph /  22.5km/h 83% 0.00in /  0mm 113 W/m2
14:40 33.6 °F /  0.9 °C 29.3 °F /  -1.5 °C 30.30in /  1026hPa WSW 12mph /  19.3km/h 19mph /  30.6km/h 84% 0.00in /  0mm 92 W/m2
14:50 33.4 °F /  0.8 °C 29.1 °F /  -1.6 °C 30.30in /  1026hPa WSW 9mph /  14.5km/h 18mph /  29km/h 84% 0.00in /  0mm 92 W/m2
15:00 33.4 °F /  0.8 °C 29.4 °F /  -1.4 °C 30.30in /  1026hPa WSW 12mph /  19.3km/h 21mph /  33.8km/h 85% 0.00in /  0mm 86 W/m2
15:10 33.4 °F /  0.8 °C 29.4 °F /  -1.4 °C 30.31in /  1026.3hPa West 10mph /  16.1km/h 20mph /  32.2km/h 85% 0.00in /  0mm 68 W/m2
15:20 33.3 °F /  0.7 °C 29.2 °F /  -1.6 °C 30.31in /  1026.3hPa WSW 9mph /  14.5km/h 14mph /  22.5km/h 85% 0.00in /  0mm 62 W/m2
15:30 33.3 °F /  0.7 °C 29.5 °F /  -1.4 °C 30.31in /  1026.3hPa WSW 5mph /  8km/h 14mph /  22.5km/h 86% 0.00in /  0mm 34 W/m2
15:40 33.3 °F /  0.7 °C 29.5 °F /  -1.4 °C 30.31in /  1026.3hPa WSW 8mph /  12.9km/h 13mph /  20.9km/h 86% 0.00in /  0mm 45 W/m2
15:50 33.3 °F /  0.7 °C 29.5 °F /  -1.4 °C 30.31in /  1026.3hPa WSW 7mph /  11.3km/h 14mph /  22.5km/h 86% 0.00in /  0mm 45 W/m2
16:00 33.3 °F /  0.7 °C 29.5 °F /  -1.4 °C 30.31in /  1026.3hPa WSW 7mph /  11.3km/h 13mph /  20.9km/h 86% 0.00in /  0mm 27 W/m2
16:10 33.1 °F /  0.6 °C 29.3 °F /  -1.5 °C 30.31in /  1026.3hPa WSW 6mph /  9.7km/h 14mph /  22.5km/h 86% 0.00in /  0mm 11 W/m2
16:20 32.9 °F /  0.5 °C 29.7 °F /  -1.3 °C 30.31in /  1026.3hPa West 7mph /  11.3km/h 14mph /  22.5km/h 88% 0.00in /  0mm 9 W/m2
16:30 32.7 °F /  0.4 °C 29.6 °F /  -1.3 °C 30.31in /  1026.3hPa West 3mph /  4.8km/h 8mph /  12.9km/h 88% 0.00in /  0mm 4 W/m2
16:40 32.7 °F /  0.4 °C 29.6 °F /  -1.3 °C 30.31in /  1026.3hPa WSW 8mph /  12.9km/h 12mph /  19.3km/h 88% 0.00in /  0mm 0 W/m2
16:50 32.5 °F /  0.3 °C 29.4 °F /  -1.4 °C 30.32in /  1026.6hPa WSW 7mph /  11.3km/h 12mph /  19.3km/h 88% 0.00in /  0mm 0 W/m2
17:00 32.5 °F /  0.3 °C 29.4 °F /  -1.4 °C 30.32in /  1026.6hPa WSW 5mph /  8km/h 12mph /  19.3km/h 88% 0.00in /  0mm 0 W/m2
17:10 32.5 °F /  0.3 °C 29.7 °F /  -1.3 °C 30.32in /  1026.6hPa WSW 5mph /  8km/h 8mph /  12.9km/h 89% 0.00in /  0mm 0 W/m2
17:20 32.5 °F /  0.3 °C 29.6 °F /  -1.3 °C 30.32in /  1026.6hPa WSW 6mph /  9.7km/h 9mph /  14.5km/h 89% 0.00in /  0mm 0 W/m2
17:30 32.5 °F /  0.3 °C 29.7 °F /  -1.3 °C 30.32in /  1026.6hPa WSW 5mph /  8km/h 8mph /  12.9km/h 89% 0.00in /  0mm 0 W/m2
17:40 32.5 °F /  0.3 °C 29.7 °F /  -1.3 °C 30.32in /  1026.6hPa WSW 5mph /  8km/h 8mph /  12.9km/h 89% 0.00in /  0mm 0 W/m2
17:50 32.5 °F /  0.3 °C 29.7 °F /  -1.3 °C 30.33in /  1027hPa WSW 3mph /  4.8km/h 9mph /  14.5km/h 89% 0.00in /  0mm 0 W/m2
18:00 32.4 °F /  0.2 °C 29.5 °F /  -1.4 °C 30.33in /  1027hPa WSW 1mph /  1.6km/h 5mph /  8km/h 89% 0.00in /  0mm 0 W/m2
18:10 32.4 °F /  0.2 °C 29.2 °F /  -1.6 °C 30.33in /  1027hPa SW 2mph /  3.2km/h 5mph /  8km/h 88% 0.00in /  0mm 0 W/m2
18:20 32.4 °F /  0.2 °C 29.5 °F /  -1.4 °C 30.33in /  1027hPa WSW 5mph /  8km/h 10mph /  16.1km/h 89% 0.00in /  0mm 0 W/m2
18:30 32.5 °F /  0.3 °C 29.9 °F /  -1.2 °C 30.33in /  1027hPa SW 3mph /  4.8km/h 10mph /  16.1km/h 90% 0.00in /  0mm 0 W/m2
18:40 32.6 °F /  0.3 °C 30 °F /  -1.1 °C 30.33in /  1027hPa WSW 6mph /  9.7km/h 9mph /  14.5km/h 90% 0.00in /  0mm 0 W/m2
18:50 32.5 °F /  0.3 °C 29.9 °F /  -1.2 °C 30.33in /  1027hPa WSW 3mph /  4.8km/h 9mph /  14.5km/h 90% 0.00in /  0mm 0 W/m2
19:00 32.5 °F /  0.3 °C 30.2 °F /  -1 °C 30.33in /  1027hPa WSW 6mph /  9.7km/h 8mph /  12.9km/h 91% 0.00in /  0mm 0 W/m2
19:10 32.5 °F /  0.3 °C 30.2 °F /  -1 °C 30.33in /  1027hPa WSW 6mph /  9.7km/h 9mph /  14.5km/h 91% 0.00in /  0mm 0 W/m2
19:20 32.5 °F /  0.3 °C 30.2 °F /  -1 °C 30.33in /  1027hPa WSW 6mph /  9.7km/h 9mph /  14.5km/h 91% 0.00in /  0mm 0 W/m2
19:30 32.5 °F /  0.3 °C 30.2 °F /  -1 °C 30.33in /  1027hPa WSW 5mph /  8km/h 10mph /  16.1km/h 91% 0.00in /  0mm 0 W/m2
19:40 32.5 °F /  0.3 °C 30.2 °F /  -1 °C 30.33in /  1027hPa WSW 6mph /  9.7km/h 10mph /  16.1km/h 91% 0.00in /  0mm 0 W/m2
19:50 32.5 °F /  0.3 °C 30.2 °F /  -1 °C 30.33in /  1027hPa WSW 5mph /  8km/h 10mph /  16.1km/h 91% 0.00in /  0mm 0 W/m2
20:10 32.5 °F /  0.3 °C 30.2 °F /  -1 °C 30.33in /  1027hPa WSW 5mph /  8km/h 11mph /  17.7km/h 91% 0.00in /  0mm 0 W/m2
20:20 32.7 °F /  0.4 °C 30.4 °F /  -0.9 °C 30.33in /  1027hPa WSW 5mph /  8km/h 9mph /  14.5km/h 91% 0.00in /  0mm 0 W/m2
20:30 32.7 °F /  0.4 °C 30.4 °F /  -0.9 °C 30.33in /  1027hPa WSW 5mph /  8km/h 10mph /  16.1km/h 91% 0.00in /  0mm 0 W/m2
20:40 32.7 °F /  0.4 °C 30.4 °F /  -0.9 °C 30.33in /  1027hPa WSW 5mph /  8km/h 9mph /  14.5km/h 91% 0.00in /  0mm 0 W/m2
20:50 32.7 °F /  0.4 °C 30.4 °F /  -0.9 °C 30.33in /  1027hPa WSW 3mph /  4.8km/h 7mph /  11.3km/h 91% 0.00in /  0mm 0 W/m2
21:00 32.9 °F /  0.5 °C 30.3 °F /  -0.9 °C 30.33in /  1027hPa SW 3mph /  4.8km/h 6mph /  9.7km/h 90% 0.00in /  0mm 0 W/m2
21:10 32.9 °F /  0.5 °C 30.3 °F /  -0.9 °C 30.33in /  1027hPa WSW 3mph /  4.8km/h 7mph /  11.3km/h 90% 0.00in /  0mm 0 W/m2
21:20 32.9 °F /  0.5 °C 30.3 °F /  -0.9 °C 30.33in /  1027hPa WSW 3mph /  4.8km/h 8mph /  12.9km/h 90% 0.00in /  0mm 0 W/m2
21:30 32.9 °F /  0.5 °C 30.3 °F /  -0.9 °C 30.33in /  1027hPa WSW 5mph /  8km/h 8mph /  12.9km/h 90% 0.00in /  0mm 0 W/m2
21:40 32.9 °F /  0.5 °C 30.3 °F /  -0.9 °C 30.33in /  1027hPa WNW 3mph /  4.8km/h 7mph /  11.3km/h 90% 0.00in /  0mm 0 W/m2
21:50 33.1 °F /  0.6 °C 30.2 °F /  -1 °C 30.33in /  1027hPa West 3mph /  4.8km/h 8mph /  12.9km/h 89% 0.00in /  0mm 0 W/m2
22:00 33.1 °F /  0.6 °C 30.2 °F /  -1 °C 30.33in /  1027hPa SSW 2mph /  3.2km/h 5mph /  8km/h 89% 0.00in /  0mm 0 W/m2
22:10 33.1 °F /  0.6 °C 30.2 °F /  -1 °C 30.33in /  1027hPa NE 2mph /  3.2km/h 6mph /  9.7km/h 89% 0.00in /  0mm 0 W/m2
22:20 32.9 °F /  0.5 °C 30 °F /  -1.1 °C 30.33in /  1027hPa NNE 1mph /  1.6km/h 3mph /  4.8km/h 89% 0.00in /  0mm 0 W/m2
22:30 32.9 °F /  0.5 °C 30 °F /  -1.1 °C 30.33in /  1027hPa Calm   3mph /  4.8km/h 89% 0.00in /  0mm 0 W/m2
22:40 32.9 °F /  0.5 °C 30 °F /  -1.1 °C 30.33in /  1027hPa NE 2mph /  3.2km/h 6mph /  9.7km/h 89% 0.00in /  0mm 0 W/m2
22:50 32.9 °F /  0.5 °C 30 °F /  -1.1 °C 30.33in /  1027hPa Calm   4mph /  6.4km/h 89% 0.00in /  0mm 0 W/m2
23:00 32.7 °F /  0.4 °C 29.8 °F /  -1.2 °C 30.33in /  1027hPa NW 1mph /  1.6km/h 2mph /  3.2km/h 89% 0.00in /  0mm 0 W/m2
23:10 32.7 °F /  0.4 °C 29.8 °F /  -1.2 °C 30.33in /  1027hPa NNW 1mph /  1.6km/h 3mph /  4.8km/h 89% 0.00in /  0mm 0 W/m2
23:20 32.7 °F /  0.4 °C 29.8 °F /  -1.2 °C 30.33in /  1027hPa NNW 2mph /  3.2km/h 5mph /  8km/h 89% 0.00in /  0mm 0 W/m2
23:30 32.7 °F /  0.4 °C 30.1 °F /  -1.1 °C 30.33in /  1027hPa WNW 5mph /  8km/h 6mph /  9.7km/h 90% 0.00in /  0mm 0 W/m2
23:40 32.9 °F /  0.5 °C 30.3 °F /  -0.9 °C 30.32in /  1026.6hPa West 5mph /  8km/h 8mph /  12.9km/h 90% 0.00in /  0mm 0 W/m2
23:50 32.9 °F /  0.5 °C 30.3 °F /  -0.9 °C 30.32in /  1026.6hPa West 2mph /  3.2km/h 7mph /  11.3km/h 90% 0.00in /  0mm 0 W/m2
Knjazevac, Serbia
Compliments of Weather Underground - 2 mb